Time;durP1;ratioP1;P1;durP2;ratioP2;P2;SDS_P1;SDS_P2;PMS_P1;PMS_P2;Temp;Humidity;BMP_temperature;BMP_pressure;BME280_temperature;BME280_humidity;BME280_pressure;Samples;Min_cycle;Max_cycle;Signal;HPM_P1;HPM_P2
2023/03/21 00:02:05;;;;;;;14.35;11.95;;;9.90;99.90;;;;;;5008701;28;20045;-50
2023/03/21 00:04:51;;;;;;;13.18;11.65;;;9.80;99.90;;;;;;5018810;28;20080;-51
2023/03/21 00:07:37;;;;;;;14.35;11.02;;;9.90;99.90;;;;;;4989897;28;20029;-51
2023/03/21 00:10:23;;;;;;;16.58;11.48;;;9.90;99.90;;;;;;4992632;28;20454;-53
2023/03/21 00:13:13;;;;;;;15.07;10.82;;;9.80;99.90;;;;;;5003352;28;20027;-55
2023/03/21 00:16:17;;;;;;;15.20;11.63;;;9.80;99.90;;;;;;5002518;28;20030;-52
2023/03/21 00:19:05;;;;;;;13.10;10.07;;;9.80;99.90;;;;;;5011686;28;20028;-52
2023/03/21 00:21:51;;;;;;;14.38;10.88;;;9.70;99.90;;;;;;4998973;28;20026;-51
2023/03/21 00:24:38;;;;;;;14.70;11.27;;;9.70;99.90;;;;;;5002287;28;20022;-53
2023/03/21 00:27:24;;;;;;;14.90;10.50;;;9.70;99.90;;;;;;4991868;28;20153;-52
2023/03/21 00:30:11;;;;;;;12.25;10.05;;;9.90;99.90;;;;;;5001317;28;20544;-55
2023/03/21 00:32:57;;;;;;;12.80;10.43;;;9.90;99.90;;;;;;4987008;28;20132;-55
2023/03/21 00:35:43;;;;;;;14.75;9.70;;;9.90;99.90;;;;;;5004614;28;20573;-56
2023/03/21 00:38:30;;;;;;;14.50;10.70;;;9.90;99.90;;;;;;5005045;28;20033;-51
2023/03/21 00:41:15;;;;;;;13.43;10.27;;;10.10;99.90;;;;;;5005248;28;20029;-56
2023/03/21 00:44:03;;;;;;;15.23;9.85;;;10.00;99.90;;;;;;5004343;28;20053;-51
2023/03/21 00:46:49;;;;;;;14.80;10.32;;;10.10;99.90;;;;;;5002678;28;20044;-52
2023/03/21 00:49:37;;;;;;;13.55;10.15;;;10.00;99.90;;;;;;5002112;28;20030;-52
2023/03/21 00:52:23;;;;;;;12.52;9.93;;;9.80;99.90;;;;;;5007809;28;20064;-52
2023/03/21 00:55:17;;;;;;;13.30;9.52;;;9.90;99.90;;;;;;5011405;28;20040;-52
2023/03/21 00:58:04;;;;;;;15.02;10.10;;;9.80;99.90;;;;;;5006336;28;20074;-54
2023/03/21 01:00:50;;;;;;;12.68;9.48;;;9.80;99.90;;;;;;4990343;28;20096;-53
2023/03/21 01:03:41;;;;;;;12.23;9.38;;;9.70;99.90;;;;;;4991444;28;20030;-48
2023/03/21 01:06:27;;;;;;;13.80;9.90;;;9.70;99.90;;;;;;4995518;28;20113;-52
2023/03/21 01:09:20;;;;;;;14.05;9.73;;;9.70;99.90;;;;;;5010085;28;20045;-52
2023/03/21 01:12:06;;;;;;;10.27;8.95;;;9.60;99.90;;;;;;5011816;28;20030;-50
2023/03/21 01:14:52;;;;;;;11.13;9.93;;;9.60;99.90;;;;;;5010160;28;20087;-56
2023/03/21 01:17:38;;;;;;;11.43;9.27;;;10.00;99.90;;;;;;5000429;28;20483;-55
2023/03/21 01:20:25;;;;;;;10.32;8.30;;;10.20;99.90;;;;;;4993926;28;20431;-53
2023/03/21 01:23:12;;;;;;;11.60;8.68;;;10.30;99.90;;;;;;5011687;28;20037;-56
2023/03/21 01:25:58;;;;;;;10.57;8.45;;;10.20;99.90;;;;;;5008311;28;20092;-51
2023/03/21 01:28:45;;;;;;;14.00;9.45;;;10.20;99.90;;;;;;4995118;28;20053;-50
2023/03/21 01:31:31;;;;;;;13.60;9.80;;;10.20;99.90;;;;;;4994895;28;20034;-50
2023/03/21 01:34:17;;;;;;;13.43;9.38;;;10.10;99.90;;;;;;5013241;28;20030;-52
2023/03/21 01:37:03;;;;;;;17.50;9.82;;;10.00;99.90;;;;;;5013933;28;20022;-51
2023/03/21 01:39:49;;;;;;;14.05;8.73;;;9.90;99.90;;;;;;5014245;28;20032;-53
2023/03/21 01:42:35;;;;;;;11.13;9.00;;;9.80;99.90;;;;;;5013834;28;20026;-55
2023/03/21 01:45:58;;;;;;;12.10;9.13;;;10.00;99.90;;;;;;5013335;28;20030;-53
2023/03/21 01:48:44;;;;;;;12.13;8.77;;;10.00;99.90;;;;;;5013971;28;20034;-53
2023/03/21 01:51:33;;;;;;;11.40;9.15;;;10.00;99.90;;;;;;5013526;28;20029;-53
2023/03/21 01:54:30;;;;;;;13.50;9.32;;;10.10;99.90;;;;;;5014839;28;20037;-51
2023/03/21 01:57:23;;;;;;;13.10;9.38;;;10.00;99.90;;;;;;4999241;28;20037;-56
2023/03/21 02:00:14;;;;;;;11.10;9.13;;;10.10;99.90;;;;;;5014694;28;20034;-52
2023/03/21 02:03:03;;;;;;;14.05;9.48;;;10.10;99.90;;;;;;5015318;28;20030;-51
2023/03/21 02:06:18;;;;;;;10.70;9.40;;;10.00;99.90;;;;;;5013852;28;20030;-54
2023/03/21 02:09:08;;;;;;;10.82;9.15;;;10.00;99.90;;;;;;4998616;28;20033;-54
2023/03/21 02:11:55;;;;;;;12.65;8.32;;;10.00;99.90;;;;;;5012485;28;20029;-53
2023/03/21 02:14:42;;;;;;;11.90;8.23;;;10.00;99.90;;;;;;5014829;28;20026;-55
2023/03/21 02:17:52;;;;;;;11.18;8.40;;;10.00;99.90;;;;;;5012669;28;20053;-54
2023/03/21 02:20:51;;;;;;;13.02;8.70;;;10.00;99.90;;;;;;4998446;28;20547;-52
2023/03/21 02:23:57;;;;;;;13.30;8.70;;;10.00;99.90;;;;;;5013868;28;20514;-54
2023/03/21 02:27:08;;;;;;;12.65;9.10;;;10.00;99.90;;;;;;4994144;28;20036;-52
2023/03/21 02:30:12;;;;;;;11.98;8.82;;;9.90;99.90;;;;;;5002035;28;20026;-50
2023/03/21 02:33:22;;;;;;;13.65;9.32;;;9.90;99.90;;;;;;5014019;28;20038;-53
2023/03/21 02:36:08;;;;;;;12.05;8.40;;;9.90;99.90;;;;;;5013954;28;20026;-57
2023/03/21 02:39:03;;;;;;;11.23;8.30;;;9.90;99.90;;;;;;5012900;28;20022;-50
2023/03/21 02:42:01;;;;;;;9.88;8.07;;;10.00;99.90;;;;;;5014342;28;20026;-55
2023/03/21 02:45:02;;;;;;;11.75;8.25;;;10.00;99.90;;;;;;5013404;28;20029;-53
2023/03/21 02:48:18;;;;;;;11.20;7.55;;;10.00;99.90;;;;;;4994643;28;20078;-54
2023/03/21 02:51:06;;;;;;;14.55;7.60;;;9.80;99.90;;;;;;5000663;28;20084;-55
2023/03/21 02:54:04;;;;;;;10.30;8.63;;;9.80;99.90;;;;;;5012807;28;20072;-52
2023/03/21 02:56:52;;;;;;;9.65;8.52;;;9.80;99.90;;;;;;5013256;28;20025;-52
2023/03/21 02:59:40;;;;;;;11.38;8.38;;;9.70;99.90;;;;;;5012952;28;20403;-53
2023/03/21 03:02:27;;;;;;;11.60;8.85;;;9.60;99.90;;;;;;5012940;28;20034;-55
2023/03/21 03:05:25;;;;;;;12.93;8.15;;;9.60;99.90;;;;;;5013297;28;20026;-50
2023/03/21 03:08:17;;;;;;;13.20;8.65;;;9.60;99.90;;;;;;5012831;28;20029;-51
2023/03/21 03:11:16;;;;;;;13.70;8.45;;;9.70;99.90;;;;;;5013388;28;20563;-51
2023/03/21 03:14:15;;;;;;;13.05;8.23;;;9.70;99.90;;;;;;5011071;28;20042;-52
2023/03/21 03:17:13;;;;;;;10.15;8.63;;;9.70;99.90;;;;;;5013278;28;20029;-49
2023/03/21 03:20:14;;;;;;;10.32;8.95;;;9.70;99.90;;;;;;5013230;28;20019;-53
2023/03/21 03:23:20;;;;;;;11.07;8.48;;;9.70;99.90;;;;;;5012321;28;20084;-52
2023/03/21 03:26:26;;;;;;;14.32;9.55;;;9.70;99.90;;;;;;5012838;28;20045;-56
2023/03/21 03:29:16;;;;;;;14.18;10.93;;;9.70;99.90;;;;;;4993875;28;20117;-52
2023/03/21 03:32:19;;;;;;;15.55;9.82;;;9.70;99.90;;;;;;4994932;28;20022;-55
2023/03/21 03:35:06;;;;;;;10.02;8.52;;;9.70;99.90;;;;;;4998529;28;20044;-54
2023/03/21 03:37:59;;;;;;;14.15;8.73;;;9.80;99.90;;;;;;5011826;28;20038;-55
2023/03/21 03:40:53;;;;;;;11.95;7.95;;;9.70;99.90;;;;;;5011911;28;20022;-53
2023/03/21 03:43:46;;;;;;;11.32;7.80;;;9.70;99.90;;;;;;5011767;28;20018;-54
2023/03/21 03:46:45;;;;;;;9.27;7.82;;;9.70;99.90;;;;;;5012606;28;20080;-54
2023/03/21 03:49:36;;;;;;;11.90;9.23;;;9.60;99.90;;;;;;5013020;28;20130;-54
2023/03/21 03:52:28;;;;;;;13.45;9.82;;;9.60;99.90;;;;;;5012686;28;20040;-55
2023/03/21 03:55:17;;;;;;;13.98;8.75;;;9.50;99.90;;;;;;5011888;28;20033;-52
2023/03/21 03:58:03;;;;;;;13.07;9.27;;;9.50;99.90;;;;;;5012071;28;20080;-55
2023/03/21 04:00:50;;;;;;;11.88;8.88;;;9.60;99.90;;;;;;5011993;28;20069;-55
2023/03/21 04:03:39;;;;;;;11.32;8.35;;;9.60;99.90;;;;;;5012267;28;20499;-51
2023/03/21 04:06:27;;;;;;;11.18;7.65;;;9.60;99.90;;;;;;4992498;28;20507;-54
2023/03/21 04:09:15;;;;;;;12.85;8.25;;;9.60;99.90;;;;;;4995186;28;20029;-57
2023/03/21 04:12:01;;;;;;;13.23;8.77;;;9.60;99.90;;;;;;5010845;28;20117;-57
2023/03/21 04:14:47;;;;;;;11.45;8.45;;;9.60;99.90;;;;;;5010163;28;20105;-56
2023/03/21 04:17:33;;;;;;;10.55;8.10;;;9.60;99.90;;;;;;5011612;28;20038;-56
2023/03/21 04:20:19;;;;;;;13.23;8.32;;;9.60;99.90;;;;;;5010608;28;20034;-56
2023/03/21 04:23:06;;;;;;;10.85;8.23;;;9.60;99.90;;;;;;5011361;28;20025;-53
2023/03/21 04:25:52;;;;;;;11.80;9.13;;;9.70;99.90;;;;;;4991340;28;20592;-54
2023/03/21 04:28:39;;;;;;;12.98;9.07;;;9.60;99.90;;;;;;5008785;28;20038;-53
2023/03/21 04:31:27;;;;;;;13.15;8.77;;;9.60;99.90;;;;;;5010044;28;20057;-54
2023/03/21 04:34:13;;;;;;;11.23;7.88;;;9.60;99.90;;;;;;4991336;28;20446;-56
2023/03/21 04:36:59;;;;;;;11.43;9.68;;;9.70;99.90;;;;;;4966530;28;20061;-56
2023/03/21 04:39:46;;;;;;;13.93;9.23;;;9.70;99.90;;;;;;5012002;28;20121;-55
2023/03/21 04:42:34;;;;;;;9.75;8.00;;;9.70;99.90;;;;;;5009699;28;20394;-56
2023/03/21 04:45:19;;;;;;;12.02;7.55;;;9.70;99.90;;;;;;5012131;28;20085;-53
2023/03/21 04:48:06;;;;;;;10.18;7.65;;;9.70;99.90;;;;;;4995828;28;20037;-56
2023/03/21 04:50:51;;;;;;;13.13;8.45;;;9.80;99.90;;;;;;5011469;28;20061;-54
2023/03/21 04:53:38;;;;;;;11.18;8.05;;;9.80;99.90;;;;;;5011040;28;20080;-55
2023/03/21 04:56:30;;;;;;;16.25;7.97;;;9.80;99.90;;;;;;5011998;28;20406;-53
2023/03/21 04:59:17;;;;;;;12.60;8.77;;;9.90;99.90;;;;;;4991080;28;20030;-51
2023/03/21 05:02:03;;;;;;;13.45;8.98;;;9.90;99.90;;;;;;4982571;28;20021;-54
2023/03/21 05:04:50;;;;;;;14.70;10.00;;;9.90;99.90;;;;;;5010822;28;20108;-54
2023/03/21 05:07:37;;;;;;;13.63;10.18;;;9.90;99.90;;;;;;4995563;28;20049;-55
2023/03/21 05:10:23;;;;;;;21.08;16.30;;;9.90;99.90;;;;;;5010416;28;20030;-51
2023/03/21 05:13:09;;;;;;;15.70;9.68;;;9.90;99.90;;;;;;5009691;28;20034;-54
2023/03/21 05:15:55;;;;;;;13.45;8.35;;;9.90;99.90;;;;;;5010471;28;20077;-55
2023/03/21 05:18:41;;;;;;;13.05;9.50;;;9.90;99.90;;;;;;4992566;28;20089;-54
2023/03/21 05:21:33;;;;;;;11.68;9.25;;;9.90;99.90;;;;;;4999031;28;20036;-55
2023/03/21 05:24:21;;;;;;;11.40;9.02;;;9.90;99.90;;;;;;5028321;28;20025;-56
2023/03/21 05:27:07;;;;;;;13.07;9.13;;;9.90;99.90;;;;;;5020853;28;20026;-54
2023/03/21 05:29:53;;;;;;;16.50;12.65;;;9.90;99.90;;;;;;5010849;28;20026;-55
2023/03/21 05:32:39;;;;;;;13.27;9.35;;;9.90;99.90;;;;;;5011259;28;20034;-54
2023/03/21 05:35:25;;;;;;;14.50;10.23;;;9.80;99.90;;;;;;5010864;28;20022;-53
2023/03/21 05:38:11;;;;;;;13.05;9.25;;;9.90;99.90;;;;;;4994905;28;20026;-52
2023/03/21 05:40:57;;;;;;;13.05;8.80;;;9.90;99.90;;;;;;5010144;28;20064;-53
2023/03/21 05:43:43;;;;;;;15.18;9.13;;;9.80;99.90;;;;;;5016869;28;20022;-58
2023/03/21 05:46:29;;;;;;;14.40;9.30;;;9.80;99.90;;;;;;5009155;28;20760;-49
2023/03/21 05:49:15;;;;;;;18.60;9.73;;;9.80;99.90;;;;;;5010966;28;20026;-50
2023/03/21 05:52:01;;;;;;;13.65;8.88;;;9.80;99.90;;;;;;5011014;28;20045;-49
2023/03/21 05:54:47;;;;;;;15.38;9.15;;;9.80;99.90;;;;;;4996948;28;20029;-49
2023/03/21 05:57:38;;;;;;;11.43;8.25;;;9.70;99.90;;;;;;5010794;28;20037;-49
2023/03/21 06:00:24;;;;;;;11.98;8.82;;;9.80;99.90;;;;;;5008846;28;20088;-49
2023/03/21 06:03:09;;;;;;;11.98;8.98;;;9.60;99.90;;;;;;5010369;28;20022;-50
2023/03/21 06:05:55;;;;;;;17.70;9.05;;;9.60;99.90;;;;;;5014121;28;20061;-52
2023/03/21 06:08:41;;;;;;;10.70;8.18;;;9.60;99.90;;;;;;5018320;28;20041;-52
2023/03/21 06:11:33;;;;;;;11.27;8.50;;;9.60;99.90;;;;;;5024713;28;20045;-55
2023/03/21 06:14:20;;;;;;;17.20;8.55;;;9.50;99.90;;;;;;5019484;28;20036;-53
2023/03/21 06:17:06;;;;;;;25.40;9.35;;;9.50;99.90;;;;;;5017972;28;20065;-53
2023/03/21 06:19:52;;;;;;;16.45;8.52;;;9.50;99.90;;;;;;4999288;28;20407;-56
2023/03/21 06:22:38;;;;;;;20.27;9.90;;;9.60;99.90;;;;;;4967981;28;20035;-54
2023/03/21 06:25:24;;;;;;;16.67;9.40;;;9.70;99.90;;;;;;4998103;28;20056;-53
2023/03/21 06:28:10;;;;;;;16.50;8.35;;;9.70;99.90;;;;;;5013374;28;20037;-52
2023/03/21 06:30:56;;;;;;;31.45;10.88;;;9.70;99.90;;;;;;5013635;28;20121;-52
2023/03/21 06:33:42;;;;;;;25.10;9.30;;;9.70;99.90;;;;;;5013447;28;20101;-53
2023/03/21 06:36:28;;;;;;;36.60;12.38;;;9.70;99.90;;;;;;5014376;28;20509;-52
2023/03/21 06:39:14;;;;;;;22.05;9.10;;;9.70;99.90;;;;;;5012437;28;20026;-54
2023/03/21 06:42:01;;;;;;;21.75;8.80;;;9.70;99.90;;;;;;5012300;28;20030;-51
2023/03/21 06:44:47;;;;;;;33.42;12.95;;;9.80;99.90;;;;;;5012330;28;20072;-52
2023/03/21 06:47:33;;;;;;;23.83;12.57;;;9.90;99.90;;;;;;5013710;28;20034;-51
2023/03/21 06:50:19;;;;;;;22.65;12.45;;;9.90;99.90;;;;;;4994401;28;20507;-52
2023/03/21 06:53:05;;;;;;;17.58;10.88;;;10.00;99.90;;;;;;4996645;28;20037;-51
2023/03/21 06:55:51;;;;;;;18.75;10.57;;;10.00;99.90;;;;;;5013617;28;20478;-55
2023/03/21 06:58:37;;;;;;;18.75;12.35;;;10.10;99.90;;;;;;5014153;28;20144;-55
2023/03/21 07:01:26;;;;;;;20.85;12.35;;;10.10;99.90;;;;;;5013331;28;20465;-54
2023/03/21 07:04:12;;;;;;;15.00;10.80;;;10.10;99.90;;;;;;5022786;28;20035;-51
2023/03/21 07:06:58;;;;;;;17.60;11.32;;;10.20;99.90;;;;;;5015814;28;20096;-53
2023/03/21 07:09:44;;;;;;;18.67;10.02;;;10.30;99.90;;;;;;5019129;28;20026;-53
2023/03/21 07:12:34;;;;;;;16.67;9.35;;;10.30;99.90;;;;;;5011837;28;20037;-53
2023/03/21 07:15:21;;;;;;;14.82;9.25;;;10.30;99.90;;;;;;5013116;28;20033;-49
2023/03/21 07:18:08;;;;;;;12.48;7.78;;;10.30;99.90;;;;;;5015243;28;20056;-55
2023/03/21 07:20:54;;;;;;;15.50;8.48;;;10.30;99.90;;;;;;5018716;28;20042;-51
2023/03/21 07:23:40;;;;;;;13.32;8.13;;;10.30;99.90;;;;;;5012789;28;20026;-50
2023/03/21 07:26:26;;;;;;;11.52;8.07;;;10.40;99.90;;;;;;5011183;28;20084;-50
2023/03/21 07:29:12;;;;;;;15.13;8.32;;;10.30;99.90;;;;;;5015928;28;20081;-56
2023/03/21 07:31:58;;;;;;;12.50;7.65;;;10.40;99.90;;;;;;5010763;28;20280;-49
2023/03/21 07:34:44;;;;;;;13.77;7.82;;;10.40;99.90;;;;;;5007661;28;20034;-57
2023/03/21 07:37:30;;;;;;;15.15;7.53;;;10.40;99.90;;;;;;5011807;28;20582;-54
2023/03/21 07:40:16;;;;;;;12.80;7.60;;;10.40;99.90;;;;;;5008943;28;20561;-55
2023/03/21 07:43:02;;;;;;;17.30;7.63;;;10.50;99.90;;;;;;5009561;28;20441;-51
2023/03/21 07:45:48;;;;;;;12.50;7.65;;;10.50;99.90;;;;;;5020728;28;20038;-57
2023/03/21 07:48:34;;;;;;;12.57;7.30;;;10.40;99.90;;;;;;5009450;28;20053;-58
2023/03/21 07:51:20;;;;;;;15.43;7.68;;;10.50;99.90;;;;;;5021200;28;20038;-56
2023/03/21 07:54:06;;;;;;;10.38;7.18;;;10.70;99.90;;;;;;4989614;28;20037;-53
2023/03/21 07:56:52;;;;;;;14.05;7.30;;;10.80;99.90;;;;;;5000168;28;20038;-56
2023/03/21 07:59:38;;;;;;;15.60;7.65;;;10.80;99.90;;;;;;4997200;28;20065;-51
2023/03/21 08:02:24;;;;;;;13.50;7.57;;;10.70;99.90;;;;;;4984575;28;20030;-55
2023/03/21 08:05:10;;;;;;;13.07;7.35;;;10.60;99.90;;;;;;4999243;28;20053;-56
2023/03/21 08:07:56;;;;;;;13.48;7.60;;;10.50;99.90;;;;;;5010300;28;20030;-54
2023/03/21 08:10:43;;;;;;;12.90;7.20;;;10.60;99.90;;;;;;5011756;28;20042;-58
2023/03/21 08:13:29;;;;;;;14.88;8.27;;;10.70;99.90;;;;;;5011752;28;20026;-54
2023/03/21 08:16:15;;;;;;;12.45;7.30;;;10.60;99.90;;;;;;5011771;28;20105;-57
2023/03/21 08:19:01;;;;;;;14.05;7.32;;;10.60;99.90;;;;;;4998344;28;20490;-56
2023/03/21 08:21:48;;;;;;;15.75;7.72;;;10.70;99.90;;;;;;5005467;28;20026;-54
2023/03/21 08:24:34;;;;;;;14.02;7.88;;;10.80;99.90;;;;;;4987971;28;20022;-53
2023/03/21 08:27:20;;;;;;;14.93;7.82;;;10.70;99.90;;;;;;5005181;28;20445;-51
2023/03/21 08:30:08;;;;;;;20.83;8.25;;;10.80;99.90;;;;;;5002672;28;20104;-55
2023/03/21 08:32:58;;;;;;;14.00;6.72;;;10.90;99.90;;;;;;4993665;28;20491;-51
2023/03/21 08:35:44;;;;;;;13.07;7.20;;;11.00;99.90;;;;;;4996210;28;20129;-52
2023/03/21 08:38:32;;;;;;;13.60;7.68;;;10.90;99.90;;;;;;5009209;28;20514;-58
2023/03/21 08:41:20;;;;;;;16.30;7.10;;;10.80;99.90;;;;;;5010294;28;20041;-59
2023/03/21 08:44:06;;;;;;;10.70;7.07;;;10.80;99.90;;;;;;5011626;28;20022;-55
2023/03/21 08:46:52;;;;;;;13.73;6.70;;;10.90;99.90;;;;;;5010091;28;20509;-57
2023/03/21 08:49:39;;;;;;;13.75;7.03;;;11.10;99.90;;;;;;5009876;28;20040;-54
2023/03/21 08:52:28;;;;;;;11.02;7.05;;;11.20;99.90;;;;;;4996851;28;20017;-59
2023/03/21 08:55:15;;;;;;;13.63;6.88;;;11.20;99.90;;;;;;5010033;28;20117;-57
2023/03/21 08:58:02;;;;;;;12.27;6.65;;;11.30;99.90;;;;;;5009769;28;20087;-54
2023/03/21 09:00:48;;;;;;;13.60;7.40;;;11.30;99.90;;;;;;4999459;28;20046;-58
2023/03/21 09:03:34;;;;;;;12.07;7.53;;;11.40;99.90;;;;;;4996641;28;20022;-54
2023/03/21 09:06:20;;;;;;;13.65;7.20;;;11.50;99.90;;;;;;5011110;28;20513;-54
2023/03/21 09:09:08;;;;;;;9.52;6.30;;;11.50;99.90;;;;;;4988636;28;20049;-50
2023/03/21 09:11:56;;;;;;;11.43;6.50;;;11.60;99.90;;;;;;5010680;28;20034;-52
2023/03/21 09:14:42;;;;;;;13.63;7.13;;;11.70;99.90;;;;;;5010981;28;20403;-52
2023/03/21 09:17:28;;;;;;;17.00;6.32;;;11.70;99.90;;;;;;5011641;28;20037;-49
2023/03/21 09:20:17;;;;;;;11.38;6.75;;;11.60;99.90;;;;;;5012020;28;20033;-50
2023/03/21 09:23:03;;;;;;;13.13;7.30;;;12.00;99.90;;;;;;5011783;28;20045;-54
2023/03/21 09:25:49;;;;;;;13.57;6.95;;;11.90;99.90;;;;;;5010505;28;20076;-53
2023/03/21 09:28:37;;;;;;;13.55;6.90;;;12.30;99.90;;;;;;5011684;28;20026;-52
2023/03/21 09:31:24;;;;;;;13.82;7.88;;;12.50;99.90;;;;;;5011030;28;20052;-51
2023/03/21 09:34:11;;;;;;;12.20;6.97;;;12.60;99.90;;;;;;5002258;28;20044;-54
2023/03/21 09:36:57;;;;;;;11.32;7.28;;;12.50;99.90;;;;;;5011213;28;20045;-50
2023/03/21 09:39:44;;;;;;;12.70;6.57;;;12.50;99.90;;;;;;4999869;28;20120;-52
2023/03/21 09:42:45;;;;;;;14.88;8.13;;;12.60;99.90;;;;;;4996412;28;20034;-55
2023/03/21 09:45:57;;;;;;;20.20;12.63;;;12.70;99.90;;;;;;4995480;28;20042;-50
2023/03/21 09:49:00;;;;;;;10.60;7.43;;;12.90;99.90;;;;;;4994226;28;20483;-51
2023/03/21 09:51:51;;;;;;;11.40;7.45;;;13.10;99.90;;;;;;5013036;28;20101;-51
2023/03/21 09:54:41;;;;;;;14.50;8.27;;;12.90;99.90;;;;;;5013099;28;20030;-51
2023/03/21 09:57:40;;;;;;;15.63;8.05;;;12.80;99.90;;;;;;5013153;28;20454;-49
2023/03/21 10:00:38;;;;;;;15.25;8.15;;;12.70;99.90;;;;;;5013105;28;20030;-52
2023/03/21 10:03:30;;;;;;;14.60;8.38;;;12.80;99.90;;;;;;5014205;28;20398;-55
2023/03/21 10:06:17;;;;;;;15.30;7.93;;;12.60;99.90;;;;;;4999124;28;20453;-58
2023/03/21 10:09:20;;;;;;;16.92;8.52;;;12.80;99.90;;;;;;5013168;28;20094;-52
2023/03/21 10:12:15;;;;;;;15.68;8.13;;;12.90;99.90;;;;;;5012933;28;20037;-54
2023/03/21 10:15:04;;;;;;;10.10;7.70;;;13.10;99.90;;;;;;5013754;28;20104;-53
2023/03/21 10:17:58;;;;;;;15.35;9.40;;;13.20;99.90;;;;;;5009877;28;20028;-57
2023/03/21 10:20:44;;;;;;;11.90;7.85;;;13.40;99.90;;;;;;5002480;28;20045;-50
2023/03/21 10:23:30;;;;;;;12.75;8.57;;;13.50;99.90;;;;;;5009147;28;20069;-53
2023/03/21 10:26:19;;;;;;;15.15;8.90;;;13.60;99.90;;;;;;4997016;28;20073;-53
2023/03/21 10:29:06;;;;;;;12.40;7.57;;;13.70;99.40;;;;;;4994372;28;20444;-53
2023/03/21 10:31:54;;;;;;;14.43;8.07;;;13.80;99.30;;;;;;4994258;28;20434;-58
2023/03/21 10:35:11;;;;;;;11.48;7.95;;;13.60;99.50;;;;;;4995956;28;20077;-55
2023/03/21 10:37:59;;;;;;;12.30;8.52;;;13.70;99.80;;;;;;5009971;28;20117;-57
2023/03/21 10:40:45;;;;;;;14.65;8.60;;;13.60;99.80;;;;;;4999843;28;20026;-57
2023/03/21 10:43:36;;;;;;;12.77;7.70;;;13.60;99.80;;;;;;4999443;28;20037;-59
2023/03/21 10:46:26;;;;;;;12.30;7.88;;;13.50;99.80;;;;;;4999692;28;20501;-51
2023/03/21 10:49:14;;;;;;;11.70;8.07;;;13.40;99.70;;;;;;5012849;28;20040;-53
2023/03/21 10:52:06;;;;;;;10.93;8.02;;;13.50;99.90;;;;;;5013345;28;20042;-52
2023/03/21 10:55:05;;;;;;;14.63;8.52;;;13.50;99.90;;;;;;5013010;28;20030;-54
2023/03/21 10:58:17;;;;;;;12.73;8.73;;;13.50;99.90;;;;;;5012848;28;20038;-58
2023/03/21 11:01:08;;;;;;;13.90;8.38;;;13.30;99.90;;;;;;4999565;28;20084;-58
2023/03/21 11:03:57;;;;;;;10.90;8.15;;;13.50;99.90;;;;;;5012669;28;20022;-54
2023/03/21 11:06:55;;;;;;;11.70;9.07;;;13.60;99.90;;;;;;5013361;28;20026;-56
2023/03/21 11:09:48;;;;;;;14.95;8.70;;;13.60;99.90;;;;;;4998931;28;20037;-53
2023/03/21 11:12:39;;;;;;;14.93;8.73;;;13.60;99.90;;;;;;5013433;28;20026;-54
2023/03/21 11:16:07;;;;;;;12.82;9.52;;;13.80;99.90;;;;;;5013018;28;20034;-54
2023/03/21 11:19:00;;;;;;;11.70;8.77;;;13.90;99.80;;;;;;4988261;28;20041;-53
2023/03/21 11:21:47;;;;;;;13.02;9.02;;;13.90;99.90;;;;;;5012528;28;20033;-57
2023/03/21 11:24:34;;;;;;;15.05;9.32;;;14.00;99.70;;;;;;5013103;28;20117;-53
2023/03/21 11:27:20;;;;;;;13.40;9.38;;;14.20;99.80;;;;;;5012626;28;20082;-55
2023/03/21 11:30:25;;;;;;;14.05;8.90;;;14.30;99.30;;;;;;5013069;28;20387;-51
2023/03/21 11:33:11;;;;;;;14.35;8.98;;;14.30;99.30;;;;;;5013421;28;20087;-54
2023/03/21 11:36:02;;;;;;;14.90;9.07;;;14.30;99.40;;;;;;5012180;28;20073;-55
2023/03/21 11:38:55;;;;;;;12.77;9.90;;;14.60;99.40;;;;;;5012936;28;20101;-56
2023/03/21 11:41:46;;;;;;;13.57;10.02;;;14.70;99.20;;;;;;5012087;28;20072;-56
2023/03/21 11:44:40;;;;;;;13.93;10.02;;;14.70;99.10;;;;;;5011706;28;20079;-53
2023/03/21 11:47:26;;;;;;;12.57;8.88;;;14.70;99.20;;;;;;5012387;28;20498;-55
2023/03/21 11:50:43;;;;;;;11.82;9.02;;;14.80;99.20;;;;;;5012357;28;20084;-52
2023/03/21 11:53:40;;;;;;;15.15;9.23;;;14.70;99.00;;;;;;5011616;28;20030;-53
2023/03/21 11:56:31;;;;;;;15.10;9.65;;;15.00;99.20;;;;;;5012052;28;20049;-50
2023/03/21 11:59:30;;;;;;;13.32;9.27;;;15.40;98.50;;;;;;5011624;28;20022;-51
2023/03/21 12:02:53;;;;;;;13.15;9.43;;;15.40;98.20;;;;;;4996297;28;20168;-58
2023/03/21 12:05:53;;;;;;;13.93;8.88;;;15.30;98.30;;;;;;5012235;28;20026;-55
2023/03/21 12:09:15;;;;;;;11.63;8.55;;;15.60;98.10;;;;;;5011708;28;20396;-54
2023/03/21 12:12:14;;;;;;;14.23;9.07;;;15.40;98.00;;;;;;4980331;28;20086;-53
2023/03/21 12:15:22;;;;;;;14.85;9.80;;;15.30;98.30;;;;;;4993793;28;20519;-58
2023/03/21 12:18:29;;;;;;;11.13;8.50;;;15.50;98.10;;;;;;4994830;28;20487;-55
2023/03/21 12:21:40;;;;;;;12.88;8.85;;;15.50;98.10;;;;;;4995502;28;20030;-50
2023/03/21 12:24:48;;;;;;;11.95;8.00;;;15.60;98.00;;;;;;4992707;28;20022;-54
2023/03/21 12:27:57;;;;;;;13.65;8.43;;;15.60;97.80;;;;;;4991968;28;20045;-50
2023/03/21 12:31:03;;;;;;;11.02;8.38;;;15.30;98.10;;;;;;4977249;28;20022;-52
2023/03/21 12:33:56;;;;;;;;;;;15.40;98.20;;;;;;4992468;28;20026;-54
2023/03/21 12:36:46;;;;;;;11.60;7.97;;;15.30;98.50;;;;;;4992966;28;19909;-54
2023/03/21 12:39:40;;;;;;;13.13;8.52;;;15.40;98.10;;;;;;4992684;28;20073;-52
2023/03/21 12:42:45;;;;;;;11.70;8.02;;;15.60;98.50;;;;;;4992480;28;20442;-55
2023/03/21 12:45:40;;;;;;;13.10;8.57;;;15.50;98.20;;;;;;4991355;28;20026;-54
2023/03/21 12:48:39;;;;;;;12.52;8.50;;;15.50;98.10;;;;;;4991154;28;20113;-50
2023/03/21 12:51:31;;;;;;;10.70;7.82;;;15.50;98.00;;;;;;4991715;28;20368;-50
2023/03/21 12:54:27;;;;;;;13.88;8.75;;;15.60;98.00;;;;;;4991420;28;20019;-54
2023/03/21 12:57:14;;;;;;;11.65;7.70;;;15.60;97.90;;;;;;4991161;28;20521;-53
2023/03/21 13:00:18;;;;;;;16.52;9.30;;;15.30;98.10;;;;;;4990979;28;20533;-51
2023/03/21 13:03:23;;;;;;;11.38;9.18;;;15.10;98.40;;;;;;4995272;28;20034;-48
2023/03/21 13:06:12;;;;;;;15.20;9.07;;;15.10;98.40;;;;;;4965757;28;20189;-54
2023/03/21 13:09:05;;;;;;;15.30;9.75;;;15.20;98.20;;;;;;4993468;28;20361;-49
2023/03/21 13:11:55;;;;;;;11.23;8.52;;;15.30;98.10;;;;;;4996895;28;20321;-50
2023/03/21 13:14:57;;;;;;;15.55;9.23;;;15.40;98.20;;;;;;5002684;28;20026;-53
2023/03/21 13:17:55;;;;;;;11.68;9.40;;;15.60;98.20;;;;;;5010536;28;20030;-55
2023/03/21 13:20:46;;;;;;;11.55;8.48;;;15.60;98.00;;;;;;5011774;28;20026;-52
2023/03/21 13:23:36;;;;;;;11.20;8.00;;;15.60;97.90;;;;;;5011634;28;20386;-50
2023/03/21 13:26:32;;;;;;;10.13;8.68;;;15.80;97.70;;;;;;5000487;28;20037;-56
2023/03/21 13:29:25;;;;;;;9.40;8.13;;;15.90;97.40;;;;;;4992750;28;20157;-53
2023/03/21 13:32:29;;;;;;;11.73;8.27;;;15.90;97.50;;;;;;4993091;28;20026;-48
2023/03/21 13:35:15;;;;;;;17.38;7.15;;;16.00;97.20;;;;;;4992693;28;20034;-53
2023/03/21 13:38:04;;;;;;;10.52;7.20;;;16.00;97.20;;;;;;4992677;28;20514;-54
2023/03/21 13:41:01;;;;;;;13.75;7.78;;;15.90;97.30;;;;;;4992109;28;20031;-55
2023/03/21 13:43:53;;;;;;;14.77;9.43;;;16.20;97.20;;;;;;4992787;28;20023;-56
2023/03/21 13:47:00;;;;;;;12.20;8.52;;;16.20;97.30;;;;;;4993291;28;20027;-55
2023/03/21 13:50:22;;;;;;;12.13;6.78;;;16.30;97.10;;;;;;4997717;28;20035;-50
2023/03/21 13:53:10;;;;;;;10.00;6.55;;;16.50;96.50;;;;;;4994217;28;20038;-53
2023/03/21 13:56:07;;;;;;;8.85;7.10;;;16.50;96.60;;;;;;4991058;28;20166;-54
2023/03/21 13:58:58;;;;;;;9.05;7.30;;;16.60;96.20;;;;;;4992053;28;20027;-51
2023/03/21 14:02:19;;;;;;;9.57;7.45;;;16.30;96.70;;;;;;4990031;28;20026;-53
2023/03/21 14:05:18;;;;;;;9.98;7.00;;;16.40;96.60;;;;;;4977260;28;20035;-56
2023/03/21 14:08:07;;;;;;;10.55;6.93;;;16.40;96.60;;;;;;4991344;28;20034;-54
2023/03/21 14:10:58;;;;;;;12.35;7.97;;;16.50;96.60;;;;;;4992176;28;20027;-52
2023/03/21 14:13:45;;;;;;;13.43;7.68;;;16.40;96.40;;;;;;4991207;28;20022;-54
2023/03/21 14:16:32;;;;;;;10.57;7.78;;;16.30;96.80;;;;;;4980345;28;20026;-49
2023/03/21 14:19:18;;;;;;;9.10;7.30;;;16.20;96.80;;;;;;4998158;28;20434;-56
2023/03/21 14:22:10;;;;;;;12.00;7.85;;;16.50;96.80;;;;;;5010942;28;20101;-52
2023/03/21 14:24:58;;;;;;;11.27;8.73;;;16.40;96.40;;;;;;5010848;28;20022;-55
2023/03/21 14:27:48;;;;;;;13.27;7.78;;;16.40;96.60;;;;;;5013825;28;20750;-53
2023/03/21 14:30:37;;;;;;;12.43;8.13;;;16.40;96.60;;;;;;5013304;28;20053;-53
2023/03/21 14:33:40;;;;;;;9.45;7.82;;;16.40;96.60;;;;;;5015469;28;20651;-51
2023/03/21 14:36:29;;;;;;;10.20;7.15;;;16.40;96.90;;;;;;5012903;28;20033;-53
2023/03/21 14:39:22;;;;;;;13.55;7.90;;;16.60;96.30;;;;;;5014703;28;20418;-55
2023/03/21 14:42:12;;;;;;;9.15;7.35;;;16.60;96.30;;;;;;5014247;28;20142;-57
2023/03/21 14:44:59;;;;;;;10.82;7.25;;;16.50;96.20;;;;;;5014835;28;20022;-56